createdAt,value
2023-01-17T00:00:44.144Z,95.40
2023-01-17T00:01:47.295Z,95.46
2023-01-17T00:02:50.501Z,95.59
2023-01-17T00:04:10.751Z,95.61
2023-01-17T00:05:31.127Z,95.66
2023-01-17T00:06:51.680Z,95.46
2023-01-17T00:08:11.880Z,95.53
2023-01-17T00:09:33.594Z,95.65
2023-01-17T00:10:40.443Z,95.67
2023-01-17T00:11:42.372Z,95.73
2023-01-17T00:12:47.740Z,95.37
2023-01-17T00:13:49.945Z,95.52
2023-01-17T00:14:54.031Z,95.68
2023-01-17T00:15:56.858Z,95.18
2023-01-17T00:17:01.171Z,95.29
2023-01-17T00:18:03.958Z,95.60
2023-01-17T00:19:24.541Z,95.36
2023-01-17T00:20:47.394Z,95.75
2023-01-17T00:22:07.627Z,95.57
2023-01-17T00:23:32.206Z,95.76
2023-01-17T00:24:53.064Z,96.13
2023-01-17T00:26:04.835Z,96.05
2023-01-17T00:27:13.115Z,96.08
2023-01-17T00:28:15.330Z,96.44
2023-01-17T00:29:17.050Z,96.22
2023-01-17T00:30:19.361Z,96.20
2023-01-17T00:31:21.162Z,96.37
2023-01-17T00:32:24.320Z,96.23
2023-01-17T00:33:26.432Z,96.18
2023-01-17T00:34:28.085Z,96.20
2023-01-17T00:35:31.263Z,96.61
2023-01-17T00:36:33.174Z,96.33
2023-01-17T00:37:35.012Z,96.35
2023-01-17T00:38:38.140Z,96.51
2023-01-17T00:39:39.922Z,96.44
2023-01-17T00:40:42.954Z,96.46
2023-01-17T00:41:44.672Z,96.25
2023-01-17T00:42:47.547Z,96.44
2023-01-17T00:44:07.853Z,96.31
2023-01-17T00:45:28.614Z,96.12
2023-01-17T00:46:49.273Z,96.05
2023-01-17T00:48:10.892Z,96.17
2023-01-17T00:49:31.331Z,96.10
2023-01-17T00:50:51.957Z,95.97
2023-01-17T00:52:12.763Z,96.04
2023-01-17T00:53:33.050Z,95.97
2023-01-17T00:54:53.368Z,95.65
2023-01-17T00:56:13.662Z,95.75
2023-01-17T00:57:33.875Z,95.48
2023-01-17T00:58:54.433Z,95.71
2023-01-17T01:00:14.927Z,95.64
2023-01-17T01:01:35.570Z,95.72
2023-01-17T01:02:56.676Z,95.40
2023-01-17T01:04:18.168Z,95.77
2023-01-17T01:05:38.986Z,95.90
2023-01-17T01:06:59.193Z,95.78
2023-01-17T01:08:19.805Z,95.53
2023-01-17T01:09:40.057Z,95.62
2023-01-17T01:11:00.439Z,95.59
2023-01-17T01:12:20.650Z,95.52
2023-01-17T01:13:43.481Z,95.38
2023-01-17T01:15:04.003Z,95.56
2023-01-17T01:16:43.024Z,95.76
2023-01-17T01:18:03.147Z,95.68
2023-01-17T01:19:24.638Z,95.93
2023-01-17T01:20:44.923Z,96.17
2023-01-17T01:22:04.952Z,96.25
2023-01-17T01:23:25.135Z,96.09
2023-01-17T01:24:45.407Z,96.40
2023-01-17T01:26:06.360Z,96.15
2023-01-17T01:27:26.577Z,96.31
2023-01-17T01:28:46.993Z,96.49
2023-01-17T01:30:07.418Z,96.09
2023-01-17T01:31:27.825Z,96.27
2023-01-17T01:32:51.007Z,96.26
2023-01-17T01:33:54.557Z,96.32
2023-01-17T01:34:57.701Z,96.37
2023-01-17T01:36:00.457Z,96.64
2023-01-17T01:37:02.554Z,96.31
2023-01-17T01:38:05.324Z,96.55
2023-01-17T01:39:08.380Z,96.27
2023-01-17T01:40:11.516Z,96.43
2023-01-17T01:41:14.416Z,96.27
2023-01-17T01:42:17.144Z,96.32
2023-01-17T01:43:22.412Z,96.37
2023-01-17T01:44:43.876Z,96.36
2023-01-17T01:45:49.954Z,96.12
2023-01-17T01:46:51.905Z,96.13
2023-01-17T01:47:56.443Z,96.20
2023-01-17T01:49:01.598Z,95.98
2023-01-17T01:50:08.472Z,96.48
2023-01-17T01:51:13.375Z,96.41
2023-01-17T01:52:15.932Z,96.14
2023-01-17T01:53:19.837Z,96.15
2023-01-17T01:54:24.507Z,96.21
2023-01-17T01:55:31.076Z,96.21
2023-01-17T01:56:33.636Z,96.12
2023-01-17T01:57:41.444Z,96.03
2023-01-17T01:58:47.089Z,96.11
2023-01-17T01:59:53.084Z,96.07
2023-01-17T02:00:54.889Z,96.08
2023-01-17T02:01:58.175Z,95.87
2023-01-17T02:03:04.530Z,95.92
2023-01-17T02:04:10.000Z,95.71
2023-01-17T02:05:13.863Z,95.65
2023-01-17T02:06:27.157Z,95.46
2023-01-17T02:07:32.823Z,95.59
2023-01-17T02:08:35.786Z,95.53
2023-01-17T02:09:37.744Z,95.52
2023-01-17T02:10:41.809Z,95.08
2023-01-17T02:11:46.775Z,95.07
2023-01-17T02:12:49.529Z,95.26
2023-01-17T02:13:52.315Z,94.97
2023-01-17T02:14:54.128Z,94.92
2023-01-17T02:16:02.359Z,94.44
2023-01-17T02:17:12.518Z,94.49
2023-01-17T02:18:22.469Z,94.27
2023-01-17T02:19:38.930Z,93.91
2023-01-17T02:20:58.867Z,93.75
2023-01-17T02:22:15.407Z,93.23
2023-01-17T02:23:48.043Z,93.43
2023-01-17T02:25:09.647Z,93.35
2023-01-17T02:26:28.891Z,93.71
2023-01-17T02:27:40.512Z,94.24
2023-01-17T02:28:56.125Z,94.34
2023-01-17T02:30:24.773Z,94.11
2023-01-17T02:31:28.085Z,93.90
2023-01-17T02:32:51.585Z,93.31
2023-01-17T02:33:58.858Z,93.55
2023-01-17T02:35:03.873Z,93.36
2023-01-17T02:36:10.567Z,93.10
2023-01-17T02:37:19.312Z,92.87
2023-01-17T02:38:31.637Z,92.67
2023-01-17T02:39:38.545Z,92.46
2023-01-17T02:40:43.446Z,92.28
2023-01-17T02:41:48.819Z,92.13
2023-01-17T02:42:55.289Z,91.92
2023-01-17T02:43:58.568Z,92.25
2023-01-17T02:45:02.552Z,91.67
2023-01-17T02:46:09.575Z,91.47
2023-01-17T02:47:23.159Z,91.38
2023-01-17T02:48:29.628Z,90.90
2023-01-17T02:49:32.145Z,91.24
2023-01-17T02:50:59.950Z,91.51
2023-01-17T02:52:13.470Z,91.05
2023-01-17T02:53:27.868Z,91.06
2023-01-17T02:54:54.072Z,90.94
2023-01-17T02:56:25.843Z,91.28
2023-01-17T02:57:45.401Z,90.67
2023-01-17T02:59:01.671Z,90.76
2023-01-17T03:00:09.523Z,90.77
2023-01-17T03:01:20.990Z,90.87
2023-01-17T03:02:27.013Z,90.71
2023-01-17T03:03:33.687Z,90.35
2023-01-17T03:04:38.868Z,90.50
2023-01-17T03:05:43.270Z,90.28
2023-01-17T03:06:49.664Z,90.17
2023-01-17T03:07:51.725Z,90.24
2023-01-17T03:08:55.089Z,89.84
2023-01-17T03:10:00.027Z,89.87
2023-01-17T03:11:03.178Z,89.81
2023-01-17T03:12:05.849Z,89.54
2023-01-17T03:13:09.023Z,89.45
2023-01-17T03:14:11.108Z,89.78
2023-01-17T03:15:17.450Z,89.57
2023-01-17T03:16:23.892Z,89.39
2023-01-17T03:17:30.963Z,89.81
2023-01-17T03:18:32.770Z,89.80
2023-01-17T03:19:54.099Z,90.21
2023-01-17T03:20:57.219Z,89.89
2023-01-17T03:21:59.019Z,90.11
2023-01-17T03:23:02.304Z,89.84
2023-01-17T03:24:05.525Z,90.13
2023-01-17T03:25:08.336Z,90.11
2023-01-17T03:26:11.183Z,90.24
2023-01-17T03:27:13.347Z,90.24
2023-01-17T03:28:16.220Z,90.44
2023-01-17T03:29:18.155Z,90.67
2023-01-17T03:30:22.898Z,90.67
2023-01-17T03:31:26.332Z,90.89
2023-01-17T03:32:29.899Z,90.81
2023-01-17T03:33:31.711Z,90.85
2023-01-17T03:34:34.547Z,90.90
2023-01-17T03:35:36.818Z,90.49
2023-01-17T03:36:39.866Z,90.04
2023-01-17T03:37:41.824Z,89.54
2023-01-17T03:38:44.735Z,89.71
2023-01-17T03:39:46.505Z,89.73
2023-01-17T03:40:49.214Z,89.58
2023-01-17T03:41:51.015Z,89.71
2023-01-17T03:42:54.559Z,89.73
2023-01-17T03:43:56.524Z,89.60
2023-01-17T03:44:59.387Z,90.19
2023-01-17T03:46:05.447Z,90.33
2023-01-17T03:47:11.928Z,90.83
2023-01-17T03:48:14.256Z,90.71
2023-01-17T03:49:17.170Z,90.82
2023-01-17T03:50:18.917Z,91.14
2023-01-17T03:51:23.603Z,91.12
2023-01-17T03:52:25.392Z,91.16
2023-01-17T03:53:28.322Z,90.90
2023-01-17T03:54:30.262Z,91.00
2023-01-17T03:55:33.085Z,91.13
2023-01-17T03:56:34.906Z,91.02
2023-01-17T03:57:38.048Z,91.01
2023-01-17T03:58:39.840Z,90.78
2023-01-17T03:59:42.798Z,90.83
2023-01-17T04:00:45.086Z,90.82
2023-01-17T04:01:48.121Z,90.73
2023-01-17T04:02:51.498Z,90.70
2023-01-17T04:03:55.357Z,90.61
2023-01-17T04:04:57.171Z,90.58
2023-01-17T04:06:00.257Z,90.74
2023-01-17T04:07:22.880Z,90.72
2023-01-17T04:08:26.810Z,90.52
2023-01-17T04:09:33.928Z,90.55
2023-01-17T04:10:35.710Z,90.68
2023-01-17T04:11:39.545Z,90.17
2023-01-17T04:12:41.609Z,90.29
2023-01-17T04:13:44.471Z,90.60
2023-01-17T04:14:47.059Z,90.89
2023-01-17T04:15:51.192Z,90.59
2023-01-17T04:16:53.090Z,90.80
2023-01-17T04:17:57.639Z,90.50
2023-01-17T04:18:59.454Z,90.44
2023-01-17T04:20:02.249Z,90.26
2023-01-17T04:21:04.549Z,89.84
2023-01-17T04:22:07.401Z,90.12
2023-01-17T04:23:09.212Z,90.00
2023-01-17T04:24:12.044Z,89.80
2023-01-17T04:25:13.937Z,89.25
2023-01-17T04:26:16.945Z,89.27
2023-01-17T04:27:19.036Z,89.20
2023-01-17T04:28:22.074Z,89.50
2023-01-17T04:29:23.987Z,90.06
2023-01-17T04:30:27.975Z,90.65
2023-01-17T04:31:30.120Z,91.13
2023-01-17T04:32:32.871Z,91.38
2023-01-17T04:33:36.544Z,91.78
2023-01-17T04:34:39.440Z,92.16
2023-01-17T04:35:41.436Z,91.95
2023-01-17T04:36:44.734Z,92.19
2023-01-17T04:37:46.640Z,92.24
2023-01-17T04:38:49.567Z,92.46
2023-01-17T04:39:51.573Z,92.29
2023-01-17T04:40:54.781Z,92.35
2023-01-17T04:41:56.634Z,92.38
2023-01-17T04:43:00.824Z,92.47
2023-01-17T04:44:02.694Z,92.40
2023-01-17T04:45:06.472Z,92.07
2023-01-17T04:46:11.020Z,92.38
2023-01-17T04:47:13.829Z,92.26
2023-01-17T04:48:15.599Z,92.38
2023-01-17T04:49:19.895Z,92.26
2023-01-17T04:50:21.691Z,92.80
2023-01-17T04:51:24.751Z,92.74
2023-01-17T04:52:26.972Z,92.80
2023-01-17T04:53:30.086Z,93.07
2023-01-17T04:54:32.974Z,93.22
2023-01-17T04:55:34.976Z,93.39
2023-01-17T04:56:37.799Z,93.47
2023-01-17T04:57:42.148Z,93.55
2023-01-17T04:58:45.332Z,93.55
2023-01-17T04:59:47.225Z,93.76
2023-01-17T05:00:51.048Z,93.83
2023-01-17T05:01:54.245Z,93.69
2023-01-17T05:02:56.058Z,94.00
2023-01-17T05:04:00.136Z,93.96
2023-01-17T05:05:03.708Z,94.21
2023-01-17T05:06:06.801Z,93.92
2023-01-17T05:07:08.745Z,93.99
2023-01-17T05:08:11.575Z,94.04
2023-01-17T05:09:14.531Z,94.35
2023-01-17T05:10:17.126Z,94.40
2023-01-17T05:11:19.917Z,94.41
2023-01-17T05:12:22.364Z,94.72
2023-01-17T05:13:25.312Z,95.03
2023-01-17T05:14:27.168Z,95.03
2023-01-17T05:15:30.450Z,95.10
2023-01-17T05:16:32.231Z,95.06
2023-01-17T05:17:35.456Z,95.10
2023-01-17T05:18:37.702Z,95.04
2023-01-17T05:19:40.729Z,94.65
2023-01-17T05:20:44.379Z,95.16
2023-01-17T05:21:49.147Z,94.80
2023-01-17T05:22:55.462Z,95.18
2023-01-17T05:23:59.190Z,95.10
2023-01-17T05:25:00.986Z,95.45
2023-01-17T05:26:03.706Z,95.21
2023-01-17T05:27:05.492Z,95.33
2023-01-17T05:28:09.027Z,95.18
2023-01-17T05:29:11.166Z,94.82
2023-01-17T05:30:14.565Z,94.72
2023-01-17T05:31:17.584Z,94.98
2023-01-17T05:32:23.275Z,94.88
2023-01-17T05:33:25.187Z,94.92
2023-01-17T05:34:27.960Z,94.75
2023-01-17T05:35:32.504Z,94.78
2023-01-17T05:36:37.654Z,94.95
2023-01-17T05:37:39.520Z,94.53
2023-01-17T05:38:44.141Z,94.37
2023-01-17T05:39:46.754Z,94.04
2023-01-17T05:40:49.501Z,93.72
2023-01-17T05:41:52.224Z,93.72
2023-01-17T05:42:55.737Z,93.31
2023-01-17T05:43:58.571Z,93.59
2023-01-17T05:45:00.333Z,94.05
2023-01-17T05:46:03.163Z,94.15
2023-01-17T05:47:04.956Z,94.31
2023-01-17T05:48:07.847Z,94.37
2023-01-17T05:49:09.965Z,94.20
2023-01-17T05:50:18.375Z,94.03
2023-01-17T05:51:21.099Z,93.64
2023-01-17T05:52:24.348Z,93.88
2023-01-17T05:53:27.086Z,93.87
2023-01-17T05:54:28.926Z,94.12
2023-01-17T05:55:32.561Z,94.50
2023-01-17T05:56:34.416Z,94.13
2023-01-17T05:57:37.227Z,94.05
2023-01-17T05:58:40.424Z,94.08
2023-01-17T05:59:42.232Z,94.00
2023-01-17T06:00:45.358Z,93.97
2023-01-17T06:01:47.433Z,94.17
2023-01-17T06:02:50.424Z,94.45
2023-01-17T06:03:52.219Z,94.66
2023-01-17T06:04:55.658Z,94.80
2023-01-17T06:05:57.482Z,94.75
2023-01-17T06:07:00.231Z,94.61
2023-01-17T06:08:04.583Z,94.92
2023-01-17T06:09:06.345Z,94.69
2023-01-17T06:10:14.366Z,94.68
2023-01-17T06:11:16.244Z,94.87
2023-01-17T06:12:20.095Z,94.93
2023-01-17T06:13:23.288Z,95.10
2023-01-17T06:14:26.133Z,95.53
2023-01-17T06:15:27.923Z,95.44
2023-01-17T06:16:31.218Z,95.64
2023-01-17T06:17:33.034Z,95.44
2023-01-17T06:18:35.773Z,95.49
2023-01-17T06:19:37.506Z,95.59
2023-01-17T06:20:41.227Z,95.39
2023-01-17T06:21:43.005Z,95.44
2023-01-17T06:22:45.806Z,95.45
2023-01-17T06:23:48.966Z,95.50
2023-01-17T06:24:51.724Z,95.73
2023-01-17T06:25:54.757Z,95.20
2023-01-17T06:26:57.149Z,95.31
2023-01-17T06:27:59.956Z,95.59
2023-01-17T06:29:01.776Z,95.53
2023-01-17T06:30:05.297Z,95.66
2023-01-17T06:31:08.072Z,95.73
2023-01-17T06:32:10.894Z,95.73
2023-01-17T06:33:13.144Z,95.51
2023-01-17T06:34:15.924Z,95.81
2023-01-17T06:35:17.659Z,95.49
2023-01-17T06:36:20.536Z,95.87
2023-01-17T06:37:22.300Z,95.66
2023-01-17T06:38:25.007Z,95.80
2023-01-17T06:39:28.193Z,95.72
2023-01-17T06:40:31.412Z,95.99
2023-01-17T06:41:33.436Z,95.96
2023-01-17T06:42:36.334Z,95.63
2023-01-17T06:43:38.137Z,95.82
2023-01-17T06:44:40.956Z,95.63
2023-01-17T06:45:42.867Z,95.69
2023-01-17T06:46:47.661Z,95.80
2023-01-17T06:47:49.464Z,95.87
2023-01-17T06:48:52.342Z,95.91
2023-01-17T06:49:54.115Z,95.91
2023-01-17T06:50:58.852Z,95.80
2023-01-17T06:52:02.244Z,96.14
2023-01-17T06:53:05.683Z,96.02
2023-01-17T06:54:10.066Z,95.98
2023-01-17T06:55:13.509Z,95.73
2023-01-17T06:56:16.629Z,95.99
2023-01-17T06:57:18.411Z,95.97
2023-01-17T06:58:21.184Z,96.11
2023-01-17T06:59:22.925Z,96.15
2023-01-17T07:00:26.035Z,96.02
2023-01-17T07:01:28.068Z,96.06
2023-01-17T07:02:30.974Z,96.10
2023-01-17T07:03:33.197Z,95.93
2023-01-17T07:04:35.969Z,96.37
2023-01-17T07:05:37.744Z,96.36
2023-01-17T07:06:40.668Z,96.25
2023-01-17T07:07:43.544Z,96.49
2023-01-17T07:08:47.425Z,96.43
2023-01-17T07:09:49.217Z,96.84
2023-01-17T07:10:59.190Z,96.71
2023-01-17T07:12:02.069Z,96.37
2023-01-17T07:13:03.850Z,96.26
2023-01-17T07:14:06.642Z,96.25
2023-01-17T07:15:09.844Z,96.68
2023-01-17T07:16:12.583Z,96.72
2023-01-17T07:17:15.418Z,96.92
2023-01-17T07:18:20.619Z,97.05
2023-01-17T07:19:23.495Z,97.22
2023-01-17T07:20:25.425Z,96.86
2023-01-17T07:21:28.287Z,97.20
2023-01-17T07:22:30.099Z,97.13
2023-01-17T07:23:33.229Z,97.04
2023-01-17T07:24:37.389Z,97.02
2023-01-17T07:25:40.146Z,97.01
2023-01-17T07:26:44.299Z,97.05
2023-01-17T07:27:46.309Z,97.34
2023-01-17T07:28:49.125Z,96.98
2023-01-17T07:29:54.069Z,97.20
2023-01-17T07:30:57.367Z,96.79
2023-01-17T07:32:00.157Z,97.16
2023-01-17T07:33:02.198Z,97.22
2023-01-17T07:34:05.190Z,96.82
2023-01-17T07:35:07.625Z,96.90
2023-01-17T07:36:11.430Z,96.78
2023-01-17T07:37:15.207Z,96.90
2023-01-17T07:38:19.363Z,96.64
2023-01-17T07:39:22.769Z,96.79
2023-01-17T07:40:25.714Z,96.62
2023-01-17T07:41:28.490Z,96.71
2023-01-17T07:42:32.678Z,96.83
2023-01-17T07:43:35.534Z,96.84
2023-01-17T07:44:41.328Z,97.01
2023-01-17T07:45:44.042Z,97.13
2023-01-17T07:46:46.816Z,97.09
2023-01-17T07:47:49.981Z,96.96
2023-01-17T07:48:52.842Z,97.05
2023-01-17T07:49:55.206Z,97.50
2023-01-17T07:50:59.229Z,97.57
2023-01-17T07:52:01.898Z,97.09
2023-01-17T07:53:05.059Z,97.53
2023-01-17T07:54:07.760Z,97.12
2023-01-17T07:55:11.216Z,97.26
2023-01-17T07:56:13.164Z,96.96
2023-01-17T07:57:15.921Z,97.23
2023-01-17T07:58:20.218Z,97.43
2023-01-17T07:59:22.046Z,97.08
2023-01-17T08:00:26.247Z,97.30
2023-01-17T08:01:47.767Z,97.23
2023-01-17T08:02:49.936Z,97.18
2023-01-17T08:03:54.780Z,97.42
2023-01-17T08:04:56.569Z,97.33
2023-01-17T08:05:59.635Z,97.63
2023-01-17T08:07:02.004Z,97.64
2023-01-17T08:08:04.985Z,97.32
2023-01-17T08:09:06.964Z,97.23
2023-01-17T08:10:17.789Z,97.14
2023-01-17T08:11:20.571Z,97.29
2023-01-17T08:12:22.533Z,97.38
2023-01-17T08:13:28.951Z,97.92
2023-01-17T08:14:32.484Z,97.51
2023-01-17T08:15:34.300Z,97.99
2023-01-17T08:16:38.095Z,97.73
2023-01-17T08:17:39.892Z,97.95
2023-01-17T08:18:42.774Z,98.28
2023-01-17T08:19:44.855Z,98.11
2023-01-17T08:20:47.637Z,97.89
2023-01-17T08:21:49.865Z,97.91
2023-01-17T08:22:56.468Z,97.86
2023-01-17T08:23:58.234Z,97.88
2023-01-17T08:25:01.241Z,97.83
2023-01-17T08:26:04.072Z,97.84
2023-01-17T08:27:05.901Z,98.00
2023-01-17T08:28:08.732Z,97.73
2023-01-17T08:29:13.104Z,98.05
2023-01-17T08:30:15.099Z,97.53
2023-01-17T08:31:19.842Z,98.19
2023-01-17T08:32:22.014Z,97.87
2023-01-17T08:33:25.005Z,97.26
2023-01-17T08:34:27.833Z,97.42
2023-01-17T08:35:29.633Z,97.60
2023-01-17T08:36:32.520Z,97.26
2023-01-17T08:37:34.758Z,97.92
2023-01-17T08:38:38.100Z,97.71
2023-01-17T08:39:39.879Z,97.92
2023-01-17T08:40:43.209Z,97.85
2023-01-17T08:41:46.028Z,97.53
2023-01-17T08:42:54.404Z,97.88
2023-01-17T08:43:57.563Z,98.10
2023-01-17T08:45:00.857Z,98.07
2023-01-17T08:46:03.630Z,97.65
2023-01-17T08:47:06.723Z,98.20
2023-01-17T08:48:09.930Z,98.16
2023-01-17T08:49:13.475Z,98.00
2023-01-17T08:50:20.498Z,98.30
2023-01-17T08:51:24.848Z,98.35
2023-01-17T08:52:28.067Z,98.21
2023-01-17T08:53:31.394Z,98.58
2023-01-17T08:54:34.184Z,98.15
2023-01-17T08:55:39.953Z,98.23
2023-01-17T08:56:43.575Z,98.37
2023-01-17T08:57:45.350Z,98.61
2023-01-17T08:58:48.149Z,98.82
2023-01-17T08:59:51.345Z,99.11
2023-01-17T09:00:55.572Z,99.14
2023-01-17T09:02:01.224Z,99.23
2023-01-17T09:03:04.441Z,99.09
2023-01-17T09:04:06.274Z,99.08
2023-01-17T09:05:09.426Z,99.38
2023-01-17T09:06:14.307Z,99.26
2023-01-17T09:07:17.346Z,99.24
2023-01-17T09:08:20.084Z,99.47
2023-01-17T09:09:23.452Z,99.24
2023-01-17T09:10:25.305Z,99.07
2023-01-17T09:11:28.063Z,98.93
2023-01-17T09:12:33.095Z,99.18
2023-01-17T09:13:35.404Z,98.98
2023-01-17T09:14:38.764Z,99.47
2023-01-17T09:15:41.839Z,99.26
2023-01-17T09:16:46.120Z,99.25
2023-01-17T09:17:48.975Z,99.05
2023-01-17T09:18:53.856Z,99.56
2023-01-17T09:19:56.667Z,99.91
2023-01-17T09:20:59.980Z,99.55
2023-01-17T09:22:02.962Z,99.65
2023-01-17T09:23:04.759Z,99.61
2023-01-17T09:24:07.882Z,99.43
2023-01-17T09:25:10.437Z,99.73
2023-01-17T09:26:19.295Z,99.95
2023-01-17T09:27:22.065Z,99.67
2023-01-17T09:28:25.339Z,99.66
2023-01-17T09:29:27.133Z,99.82
2023-01-17T09:30:29.938Z,99.52
2023-01-17T09:31:31.872Z,99.67
2023-01-17T09:32:36.181Z,99.67
2023-01-17T09:33:38.049Z,99.57
2023-01-17T09:34:40.874Z,99.58
2023-01-17T09:35:42.738Z,99.81
2023-01-17T09:36:45.763Z,99.71
2023-01-17T09:37:49.349Z,99.83
2023-01-17T09:38:57.112Z,100.00
2023-01-17T09:39:59.868Z,99.93
2023-01-17T09:41:02.853Z,100.00
2023-01-17T09:42:18.578Z,100.00
2023-01-17T09:43:25.535Z,100.00
2023-01-17T09:44:29.931Z,100.00
2023-01-17T09:45:34.562Z,100.00
2023-01-17T09:46:40.988Z,100.00
2023-01-17T09:47:47.649Z,100.00
2023-01-17T09:48:59.731Z,100.00
2023-01-17T09:50:15.402Z,100.00
2023-01-17T09:51:22.159Z,100.00
2023-01-17T09:52:26.146Z,100.00
2023-01-17T09:53:32.549Z,100.00
2023-01-17T09:54:40.003Z,100.00
2023-01-17T09:55:44.124Z,100.00
2023-01-17T09:56:50.604Z,100.00
2023-01-17T09:58:00.866Z,100.00
2023-01-17T09:59:12.091Z,100.00
2023-01-17T10:00:27.473Z,100.00
2023-01-17T10:01:36.176Z,99.98
2023-01-17T10:02:49.130Z,99.96
2023-01-17T10:04:05.999Z,99.94
2023-01-17T10:05:30.938Z,100.00
2023-01-17T10:06:44.292Z,99.86
2023-01-17T10:07:56.129Z,99.69
2023-01-17T10:09:24.669Z,99.55
2023-01-17T10:10:34.573Z,99.31
2023-01-17T10:11:47.053Z,99.26
2023-01-17T10:12:56.141Z,99.06
2023-01-17T10:14:07.360Z,99.07
2023-01-17T10:15:27.996Z,99.23
2023-01-17T10:16:38.991Z,99.00
2023-01-17T10:17:50.244Z,98.98
2023-01-17T10:19:12.523Z,98.63
2023-01-17T10:20:34.066Z,98.52
2023-01-17T10:21:49.462Z,98.63
2023-01-17T10:23:03.823Z,98.48
2023-01-17T10:24:25.826Z,98.31
2023-01-17T10:25:44.745Z,97.46
2023-01-17T10:26:49.910Z,97.29
2023-01-17T10:27:57.041Z,97.17
2023-01-17T10:29:02.280Z,96.49
2023-01-17T10:30:17.312Z,97.03
2023-01-17T10:31:23.287Z,96.86
2023-01-17T10:32:29.099Z,96.64
2023-01-17T10:33:40.772Z,96.17
2023-01-17T10:34:45.410Z,95.99
2023-01-17T10:35:56.943Z,95.28
2023-01-17T10:37:02.006Z,94.58
2023-01-17T10:38:07.111Z,94.65
2023-01-17T10:39:16.371Z,93.91
2023-01-17T10:40:24.225Z,94.31
2023-01-17T10:41:30.667Z,94.52
2023-01-17T10:42:42.269Z,92.68
2023-01-17T10:43:49.289Z,92.04
2023-01-17T10:44:56.993Z,92.00
2023-01-17T10:45:58.853Z,92.88
2023-01-17T10:47:08.449Z,91.42
2023-01-17T10:48:16.020Z,90.87
2023-01-17T10:49:23.318Z,88.68
2023-01-17T10:50:26.478Z,89.86
2023-01-17T10:51:43.728Z,89.28
2023-01-17T10:52:52.699Z,88.98
2023-01-17T10:54:04.110Z,88.81
2023-01-17T10:55:13.051Z,90.02
2023-01-17T10:56:17.376Z,89.50
2023-01-17T10:57:22.240Z,88.22
2023-01-17T10:58:25.193Z,88.54
2023-01-17T10:59:30.548Z,88.10
2023-01-17T11:00:43.794Z,89.00
2023-01-17T11:01:46.760Z,88.19
2023-01-17T11:02:50.765Z,87.45
2023-01-17T11:03:55.303Z,84.93
2023-01-17T11:05:05.686Z,84.74
2023-01-17T11:06:15.395Z,84.05
2023-01-17T11:07:19.824Z,85.25
2023-01-17T11:08:22.737Z,85.94
2023-01-17T11:09:40.781Z,84.95
2023-01-17T11:10:44.986Z,85.05
2023-01-17T11:11:49.459Z,85.58
2023-01-17T11:12:52.418Z,84.62
2023-01-17T11:13:55.008Z,83.58
2023-01-17T11:15:02.401Z,84.29
2023-01-17T11:16:08.283Z,82.97
2023-01-17T11:17:12.234Z,82.86
2023-01-17T11:18:16.179Z,83.60
2023-01-17T11:19:26.611Z,80.20
2023-01-17T11:20:34.435Z,82.19
2023-01-17T11:21:40.084Z,81.78
2023-01-17T11:22:44.923Z,80.48
2023-01-17T11:23:48.527Z,80.98
2023-01-17T11:24:53.140Z,81.10
2023-01-17T11:25:58.076Z,80.70
2023-01-17T11:27:00.106Z,79.98
2023-01-17T11:28:05.955Z,79.52
2023-01-17T11:29:15.304Z,79.80
2023-01-17T11:30:19.974Z,80.05
2023-01-17T11:31:27.349Z,79.60
2023-01-17T11:32:32.706Z,80.06
2023-01-17T11:33:45.046Z,79.47
2023-01-17T11:35:06.634Z,78.58
2023-01-17T11:36:17.549Z,78.50
2023-01-17T11:37:22.787Z,78.37
2023-01-17T11:38:25.962Z,79.20
2023-01-17T11:39:28.943Z,79.26
2023-01-17T11:40:33.616Z,78.08
2023-01-17T11:41:37.889Z,78.25
2023-01-17T11:42:39.731Z,79.54
2023-01-17T11:43:51.651Z,78.64
2023-01-17T11:44:54.947Z,77.38
2023-01-17T11:46:06.097Z,74.72
2023-01-17T11:47:18.902Z,76.74
2023-01-17T11:48:21.931Z,77.73
2023-01-17T11:49:26.665Z,77.54
2023-01-17T11:50:29.153Z,77.13
2023-01-17T11:51:35.017Z,78.32
2023-01-17T11:52:39.074Z,79.16
2023-01-17T11:53:47.007Z,76.37
2023-01-17T11:54:50.913Z,77.23
2023-01-17T11:55:55.564Z,78.91
2023-01-17T11:56:58.578Z,77.85
2023-01-17T11:58:00.356Z,77.17
2023-01-17T11:59:17.457Z,76.89
2023-01-17T12:00:24.385Z,76.28
2023-01-17T12:01:34.865Z,76.21
2023-01-17T12:02:52.162Z,77.72
2023-01-17T12:04:18.266Z,76.96
2023-01-17T12:05:33.187Z,75.20
2023-01-17T12:06:56.763Z,75.18
2023-01-17T12:08:08.345Z,75.35
2023-01-17T12:09:22.853Z,75.28
2023-01-17T12:10:30.580Z,76.44
2023-01-17T12:12:00.289Z,77.01
2023-01-17T12:13:29.168Z,76.65
2023-01-17T12:14:37.556Z,75.01
2023-01-17T12:15:52.007Z,76.20
2023-01-17T12:17:01.738Z,73.77
2023-01-17T12:18:18.901Z,75.15
2023-01-17T12:19:32.334Z,74.94
2023-01-17T12:20:41.462Z,75.71
2023-01-17T12:21:50.976Z,76.20
2023-01-17T12:23:14.150Z,73.98
2023-01-17T12:24:31.906Z,74.86
2023-01-17T12:25:49.031Z,75.26
2023-01-17T12:26:57.813Z,74.70
2023-01-17T12:28:10.027Z,73.95
2023-01-17T12:29:44.137Z,72.95
2023-01-17T12:30:59.232Z,74.66
2023-01-17T12:32:12.946Z,72.92
2023-01-17T12:33:20.012Z,72.29
2023-01-17T12:34:25.721Z,70.67
2023-01-17T12:35:32.444Z,72.48
2023-01-17T12:36:41.553Z,73.83
2023-01-17T12:37:52.666Z,73.00
2023-01-17T12:39:02.484Z,72.60
2023-01-17T12:40:14.782Z,71.09
2023-01-17T12:41:20.931Z,71.81
2023-01-17T12:42:25.442Z,71.27
2023-01-17T12:43:32.127Z,71.65
2023-01-17T12:44:42.645Z,71.87
2023-01-17T12:45:46.689Z,71.80
2023-01-17T12:46:51.920Z,71.34
2023-01-17T12:48:00.044Z,70.87
2023-01-17T12:49:05.615Z,70.92
2023-01-17T12:50:19.276Z,71.67
2023-01-17T12:51:27.714Z,71.50
2023-01-17T12:52:42.483Z,69.88
2023-01-17T12:53:52.526Z,71.42
2023-01-17T12:54:57.905Z,71.89
2023-01-17T12:56:04.965Z,71.03
2023-01-17T12:57:13.882Z,69.97
2023-01-17T12:58:21.322Z,68.92
2023-01-17T12:59:27.450Z,69.19
2023-01-17T13:00:32.315Z,70.64
2023-01-17T13:01:39.635Z,69.24
2023-01-17T13:02:47.415Z,69.14
2023-01-17T13:04:00.565Z,69.62
2023-01-17T13:05:07.655Z,71.18
2023-01-17T13:06:16.158Z,70.54
2023-01-17T13:07:25.487Z,69.91
2023-01-17T13:08:34.257Z,69.99
2023-01-17T13:09:43.901Z,69.75
2023-01-17T13:10:51.222Z,69.95
2023-01-17T13:11:57.579Z,69.01
2023-01-17T13:13:03.767Z,68.05
2023-01-17T13:14:09.913Z,67.92
2023-01-17T13:15:14.849Z,67.93
2023-01-17T13:16:21.976Z,68.54
2023-01-17T13:17:27.348Z,69.31
2023-01-17T13:18:33.178Z,69.62
2023-01-17T13:19:43.585Z,67.72
2023-01-17T13:21:06.101Z,68.46
2023-01-17T13:22:17.197Z,68.41
2023-01-17T13:23:28.699Z,66.05
2023-01-17T13:24:41.492Z,66.75
2023-01-17T13:25:45.941Z,67.32
2023-01-17T13:27:25.946Z,66.38
2023-01-17T13:28:37.489Z,65.58
2023-01-17T13:29:48.978Z,66.90
2023-01-17T13:31:09.975Z,65.60
2023-01-17T13:32:25.689Z,66.06
2023-01-17T13:33:35.661Z,65.76
2023-01-17T13:34:53.895Z,65.32
2023-01-17T13:36:07.012Z,65.56
2023-01-17T13:37:21.685Z,64.80
2023-01-17T13:38:35.813Z,64.02
2023-01-17T13:39:55.239Z,64.25
2023-01-17T13:41:01.311Z,63.82
2023-01-17T13:42:10.918Z,63.92
2023-01-17T13:43:15.034Z,63.63
2023-01-17T13:44:23.132Z,64.74
2023-01-17T13:45:28.611Z,62.76
2023-01-17T13:46:31.485Z,62.54
2023-01-17T13:47:42.262Z,63.57
2023-01-17T13:48:44.982Z,63.31
2023-01-17T13:49:49.442Z,63.38
2023-01-17T13:50:55.479Z,64.40
2023-01-17T13:52:02.815Z,63.50
2023-01-17T13:53:38.769Z,61.61
2023-01-17T13:54:45.790Z,63.42
2023-01-17T13:55:53.207Z,63.27
2023-01-17T13:57:44.058Z,62.83
2023-01-17T13:58:58.236Z,61.83
2023-01-17T14:00:31.770Z,63.26
2023-01-17T14:01:53.585Z,64.28
2023-01-17T14:02:56.452Z,62.95
2023-01-17T14:04:06.361Z,64.33
2023-01-17T14:05:13.366Z,62.25
2023-01-17T14:06:35.143Z,61.35
2023-01-17T14:07:46.057Z,62.83
2023-01-17T14:08:48.281Z,63.19
2023-01-17T14:09:51.563Z,64.20
2023-01-17T14:10:55.102Z,63.84
2023-01-17T14:12:00.135Z,63.77
2023-01-17T14:13:04.991Z,63.61
2023-01-17T14:14:50.544Z,64.67
2023-01-17T14:15:53.827Z,64.49
2023-01-17T14:16:55.868Z,65.67
2023-01-17T14:18:00.363Z,65.20
2023-01-17T14:19:02.418Z,65.58
2023-01-17T14:20:48.857Z,66.34
2023-01-17T14:21:52.037Z,65.42
2023-01-17T14:22:55.559Z,65.97
2023-01-17T14:24:03.799Z,65.77